WetterOnline ( https://www.wetteronline.de )

Wetter aktuell Tamm

Aktuelles Wetter: Mühlacker (245m)

6-stündlich | Neueste Meldungen
Ortszeit Temperatur Wetter
Mo, 23.05. 8:00 13.5° C leichter Regen
Mo, 23.05. 2:00 12.5° C wolkig
So, 22.05. 20:00 19.6° C bedeckt
So, 22.05. 14:00 22.6° C wolkig
So, 22.05. 8:00 10.9° C wolkig
So, 22.05. 2:00 8.3° C wolkenlos
Sa, 21.05. 20:00 18.2° C wolkig
Sa, 21.05. 14:00 19.5° C wolkig
Ortszeit Temperatur Wetter
Mo, 23.05. 9:30 16.6° C bedeckt
Mo, 23.05. 9:20 16.6° C bedeckt
Mo, 23.05. 9:10 17.0° C bedeckt
Mo, 23.05. 9:00 15.1° C bedeckt
Mo, 23.05. 8:50 15.1° C bedeckt
Mo, 23.05. 8:40 14.6° C bedeckt
Mo, 23.05. 8:30 14.1° C bedeckt
Mo, 23.05. 8:00 13.5° C leichter Regen
Mo, 23.05. 7:30 13.2° C wolkig
Mo, 23.05. 7:00 13.6° C leichter Regen
Mo, 23.05. 6:30 13.7° C Regen
Ortszeit Relative Feuchte Sichtweite
Mo, 23.05. 8:00 94% 29 km
Mo, 23.05. 2:00 88% 55 km
So, 22.05. 20:00 70% >70 km
So, 22.05. 14:00 43% >70 km
So, 22.05. 8:00 89% 35 km
So, 22.05. 2:00 94% 35 km
Sa, 21.05. 20:00 63% >70 km
Sa, 21.05. 14:00 46% 45 km
Ortszeit Relative Feuchte Sichtweite
Mo, 23.05. 9:30 85% 45 km
Mo, 23.05. 9:20 85% -
Mo, 23.05. 9:10 83% -
Mo, 23.05. 9:00 90% 40 km
Mo, 23.05. 8:50 90% -
Mo, 23.05. 8:40 91% -
Mo, 23.05. 8:30 91% 40 km
Mo, 23.05. 8:00 94% 29 km
Mo, 23.05. 7:30 94% 19 km
Mo, 23.05. 7:00 91% 17 km
Mo, 23.05. 6:30 89% 9 km
Ortszeit Niederschlagsmenge Niederschlagsart
Mo, 23.05. 8:00 5 l/m2 in 12 Std. Regen
Mo, 23.05. 2:00 0.1 l/m2 in 6 Std. Regen
So, 22.05. 20:00 0.1 l/m2 in 12 Std. Regen
So, 22.05. 14:00 0.0 l/m2 in 6 Std. -
So, 22.05. 8:00 0.0 l/m2 in 12 Std. -
So, 22.05. 2:00 0.0 l/m2 in 6 Std. -
Sa, 21.05. 20:00 0.0 l/m2 in 12 Std. -
Sa, 21.05. 14:00 0.0 l/m2 in 6 Std. -
Ortszeit Niederschlagsmenge Niederschlagsart
Mo, 23.05. 9:30 0.1 l/m2 in 1 Std. -
Mo, 23.05. 9:20 keine Meldung -
Mo, 23.05. 9:10 keine Meldung -
Mo, 23.05. 9:00 0.1 l/m2 in 1 Std. Regen
Mo, 23.05. 8:50 keine Meldung -
Mo, 23.05. 8:40 keine Meldung -
Mo, 23.05. 8:30 0.1 l/m2 in 1 Std. Schneeregen
Mo, 23.05. 8:00 0.4 l/m2 in 1 Std. Regen
Mo, 23.05. 7:30 0.4 l/m2 in 1 Std. Schneeregen
Mo, 23.05. 7:00 4.2 l/m2 in 1 Std. Regen
Mo, 23.05. 6:30 3.0 l/m2 in 1 Std. -
Ortszeit Stärke Spitze Richtung
km/h Bft. km/h Grad Sektor
Mo, 23.05. 8:00 11 2 18 110° O
Mo, 23.05. 2:00 0 0 14 - -
So, 22.05. 20:00 4 1 18 10° N
So, 22.05. 14:00 6 1 17 260° W
So, 22.05. 8:00 4 1 7 120° SO
So, 22.05. 2:00 0 0 11 - -
Sa, 21.05. 20:00 9 2 33 340° N
Sa, 21.05. 14:00 14 3 32 260° W
Ortszeit Stärke Spitze Richtung
km/h Bft. km/h Grad Sektor
Mo, 23.05. 9:30 13 3 22 140° SO
Mo, 23.05. 9:20 13 3 - 140° SO
Mo, 23.05. 9:10 7 2 - 140° SO
Mo, 23.05. 9:00 7 2 31 130° SO
Mo, 23.05. 8:50 7 2 - 130° SO
Mo, 23.05. 8:40 9 2 - 110° O
Mo, 23.05. 8:30 15 3 31 120° SO
Mo, 23.05. 8:00 11 2 18 110° O
Mo, 23.05. 7:30 6 1 9 90° O
Mo, 23.05. 7:00 4 1 18 290° W
Mo, 23.05. 6:30 6 1 17 270° W
Ortszeit Untergrenze Bedeckung Gattung
total tief tief mittel hoch
Mo, 23.05. 8:00 2100 m 8/8 1/8 - - -
Mo, 23.05. 2:00 7800 m 8/8 0/8 - - -
So, 22.05. 20:00 3300 m 8/8 8/8 - - -
So, 22.05. 14:00 8100 m 8/8 0/8 - - -
So, 22.05. 8:00 8100 m 8/8 0/8 - - -
So, 22.05. 2:00 - 0/8 0/8 - - -
Sa, 21.05. 20:00 5400 m 8/8 2/8 - - -
Sa, 21.05. 14:00 1290 m 7/8 1/8 - - -
Ortszeit Bedeckungsgrad in Achtel und Wolkenuntergrenze
Mo, 23.05. 9:30 3(3600m) 6(6000m) 8(6900m)
Mo, 23.05. 9:20 3(3600m) 6(6000m) 8(6900m)
Mo, 23.05. 9:10 8
Mo, 23.05. 9:00 8(3600m) 8(4200m) 8(5700m)
Mo, 23.05. 8:50 8(3600m) 8(4200m) 8(5700m)
Mo, 23.05. 8:40 8
Mo, 23.05. 8:30 7(3300m) 8(4200m) 8(5100m)
Mo, 23.05. 8:00 1(2100m) 8(4200m) 8(4800m)
Mo, 23.05. 7:30 1(1800m) 8(3000m)
Mo, 23.05. 7:00 1(990m) 5(2400m) 8(3000m)
Mo, 23.05. 6:30 1(1500m) 6(2100m) 8(2700m)
Ortszeit Luftdruck NN (hPa) Tendenz (hPa in 3 Std.)
Mo, 23.05. 8:00 1006 - 0,7
Mo, 23.05. 2:00 1009 - 2,0
So, 22.05. 20:00 1011 - 1,5
So, 22.05. 14:00 1014 - 1,8
So, 22.05. 8:00 1018 - 0,9
So, 22.05. 2:00 1020 - 0,7
Sa, 21.05. 20:00 1020 - 1,5
Sa, 21.05. 14:00 1023 - 1,0
Ortszeit Luftdruck NN (hPa) Tendenz (hPa in 3 Std.)
Mo, 23.05. 9:30 1006 - 3,7
Mo, 23.05. 9:20 1006 keine Meldung
Mo, 23.05. 9:10 1006 keine Meldung
Mo, 23.05. 9:00 1006 - 2,6
Mo, 23.05. 8:50 1006 keine Meldung
Mo, 23.05. 8:40 1006 keine Meldung
Mo, 23.05. 8:30 1006 - 0,6
Mo, 23.05. 8:00 1006 - 0,7
Mo, 23.05. 7:30 1007 - 0,4
Mo, 23.05. 7:00 1009 + 1,2
Mo, 23.05. 6:30 1010 + 1,7
Ortszeit Schneehöhe (cm)
Mo, 23.05. 8:00 0
Mo, 23.05. 2:00 0
So, 22.05. 20:00 0
So, 22.05. 14:00 0
So, 22.05. 8:00 0
So, 22.05. 2:00 0
Sa, 21.05. 20:00 0
Sa, 21.05. 14:00 0
Ortszeit Schneehöhe (cm)
Mo, 23.05. 9:30 0
Mo, 23.05. 9:20 0
Mo, 23.05. 9:10 0
Mo, 23.05. 9:00 0
Mo, 23.05. 8:50 0
Mo, 23.05. 8:40 0
Mo, 23.05. 8:30 0
Mo, 23.05. 8:00 0
Mo, 23.05. 7:30 0
Mo, 23.05. 7:00 0
Mo, 23.05. 6:30 0
Link zu dieser Seite / Seite empfehlen

Das Wetter in ...